createdAt,value
2018-06-27T00:00:43.483Z,12.00
2018-06-27T00:01:43.449Z,16.60
2018-06-27T00:02:43.438Z,13.90
2018-06-27T00:03:43.440Z,14.30
2018-06-27T00:04:43.415Z,11.30
2018-06-27T00:05:43.405Z,15.60
2018-06-27T00:06:43.398Z,16.60
2018-06-27T00:07:43.384Z,13.10
2018-06-27T00:08:43.385Z,14.30
2018-06-27T00:09:43.361Z,17.40
2018-06-27T00:10:43.350Z,16.60
2018-06-27T00:11:43.372Z,11.30
2018-06-27T00:12:43.335Z,15.90
2018-06-27T00:13:43.338Z,15.20
2018-06-27T00:14:43.306Z,14.90
2018-06-27T00:15:43.295Z,15.80
2018-06-27T00:16:43.285Z,16.40
2018-06-27T00:17:43.273Z,15.80
2018-06-27T00:18:43.281Z,12.30
2018-06-27T00:19:43.254Z,15.90
2018-06-27T00:20:43.247Z,16.80
2018-06-27T00:21:43.232Z,13.00
2018-06-27T00:22:43.219Z,13.20
2018-06-27T00:23:43.208Z,23.70
2018-06-27T00:24:43.213Z,14.10
2018-06-27T00:25:43.186Z,13.90
2018-06-27T00:26:43.177Z,14.30
2018-06-27T00:27:43.167Z,13.60
2018-06-27T00:28:43.154Z,14.00
2018-06-27T00:29:43.160Z,13.30
2018-06-27T00:30:43.179Z,12.80
2018-06-27T00:31:43.120Z,19.30
2018-06-27T00:32:43.109Z,15.60
2018-06-27T00:33:43.099Z,14.20
2018-06-27T00:34:43.111Z,13.30
2018-06-27T00:35:44.346Z,14.10
2018-06-27T00:36:43.066Z,15.00
2018-06-27T00:37:43.057Z,15.20
2018-06-27T00:38:43.044Z,15.20
2018-06-27T00:39:43.035Z,13.70
2018-06-27T00:40:43.040Z,13.60
2018-06-27T00:41:43.014Z,13.60
2018-06-27T00:42:43.003Z,13.30
2018-06-27T00:43:42.995Z,15.90
2018-06-27T00:44:42.981Z,12.60
2018-06-27T00:45:42.983Z,15.70
2018-06-27T00:46:42.959Z,15.40
2018-06-27T00:47:42.954Z,12.20
2018-06-27T00:48:42.936Z,14.60
2018-06-27T00:49:42.926Z,10.60
2018-06-27T00:50:42.934Z,16.00
2018-06-27T00:51:42.907Z,16.10
2018-06-27T00:52:42.894Z,15.00
2018-06-27T00:53:42.881Z,15.50
2018-06-27T00:54:42.873Z,13.20
2018-06-27T00:55:42.860Z,13.20
2018-06-27T00:56:42.863Z,13.30
2018-06-27T00:57:42.840Z,13.20
2018-06-27T00:58:42.829Z,14.00
2018-06-27T00:59:42.817Z,15.70
2018-06-27T01:00:42.805Z,14.60
2018-06-27T01:01:42.818Z,14.20
2018-06-27T01:02:42.800Z,13.80
2018-06-27T01:03:42.772Z,11.40
2018-06-27T01:04:42.761Z,14.70
2018-06-27T01:05:42.751Z,15.80
2018-06-27T01:06:42.741Z,11.50
2018-06-27T01:07:42.745Z,24.00
2018-06-27T01:08:42.719Z,11.40
2018-06-27T01:09:42.708Z,10.60
2018-06-27T01:10:42.758Z,16.90
2018-06-27T01:11:42.692Z,11.30
2018-06-27T01:12:42.691Z,12.20
2018-06-27T01:13:42.667Z,13.20
2018-06-27T01:14:42.659Z,14.90
2018-06-27T01:15:42.646Z,16.30
2018-06-27T01:16:42.638Z,12.00
2018-06-27T01:17:42.647Z,16.60
2018-06-27T01:18:42.616Z,15.70
2018-06-27T01:19:42.602Z,16.10
2018-06-27T01:20:42.594Z,14.60
2018-06-27T01:21:42.588Z,22.30
2018-06-27T01:22:42.572Z,15.70
2018-06-27T01:23:42.575Z,21.70
2018-06-27T01:24:42.551Z,15.10
2018-06-27T01:25:42.537Z,15.10
2018-06-27T01:26:42.533Z,19.70
2018-06-27T01:27:42.518Z,19.70
2018-06-27T01:28:42.527Z,18.20
2018-06-27T01:29:42.497Z,16.60
2018-06-27T01:30:42.486Z,16.80
2018-06-27T01:31:42.473Z,15.50
2018-06-27T01:32:42.463Z,15.80
2018-06-27T01:33:42.472Z,18.90
2018-06-27T01:34:42.443Z,12.20
2018-06-27T01:35:42.450Z,15.20
2018-06-27T01:36:42.421Z,14.50
2018-06-27T01:37:42.416Z,17.10
2018-06-27T01:38:42.413Z,16.10
2018-06-27T01:42:00.197Z,10.50
2018-06-27T01:43:00.188Z,15.60
2018-06-27T01:44:00.189Z,15.60
2018-06-27T01:45:00.183Z,15.20
2018-06-27T01:46:00.152Z,11.90
2018-06-27T01:47:00.142Z,17.90
2018-06-27T01:48:00.132Z,16.80
2018-06-27T01:49:00.122Z,17.60
2018-06-27T01:50:00.124Z,14.20
2018-06-27T01:51:00.099Z,15.60
2018-06-27T01:52:00.091Z,15.60
2018-06-27T01:53:00.078Z,16.40
2018-06-27T01:54:00.069Z,16.80
2018-06-27T01:55:00.086Z,15.70
2018-06-27T01:56:00.047Z,14.50
2018-06-27T01:57:00.035Z,20.40
2018-06-27T01:58:00.027Z,18.50
2018-06-27T01:59:00.014Z,12.30
2018-06-27T02:00:00.018Z,20.50
2018-06-27T02:00:59.990Z,18.10
2018-06-27T02:01:59.980Z,14.00
2018-06-27T02:02:59.966Z,16.00
2018-06-27T02:03:59.954Z,17.10
2018-06-27T02:04:59.957Z,15.30
2018-06-27T02:05:59.934Z,16.00
2018-06-27T02:06:59.922Z,16.10
2018-06-27T02:07:59.912Z,13.40
2018-06-27T02:08:59.900Z,14.90
2018-06-27T02:09:59.908Z,14.20
2018-06-27T02:10:59.876Z,11.70
2018-06-27T02:11:59.881Z,18.00
2018-06-27T02:12:59.859Z,12.40
2018-06-27T02:13:59.852Z,17.80
2018-06-27T02:14:59.833Z,14.10
2018-06-27T02:15:59.840Z,11.70
2018-06-27T02:16:59.809Z,19.50
2018-06-27T02:17:59.798Z,13.70
2018-06-27T02:18:59.787Z,17.00
2018-06-27T02:19:59.777Z,12.70
2018-06-27T02:20:59.802Z,10.30
2018-06-27T02:21:59.757Z,11.60
2018-06-27T02:22:59.742Z,17.10
2018-06-27T02:23:59.732Z,13.00
2018-06-27T02:24:59.760Z,14.20
2018-06-27T02:25:59.712Z,19.80
2018-06-27T02:26:59.717Z,15.00
2018-06-27T02:27:59.689Z,15.30
2018-06-27T02:28:59.676Z,15.00
2018-06-27T02:29:59.664Z,11.50
2018-06-27T02:30:59.659Z,18.20
2018-06-27T02:31:59.658Z,14.80
2018-06-27T02:32:59.633Z,14.00
2018-06-27T02:33:59.620Z,16.80
2018-06-27T02:34:59.611Z,16.20
2018-06-27T02:35:59.598Z,11.90
2018-06-27T02:36:59.607Z,15.90
2018-06-27T02:37:59.576Z,11.30
2018-06-27T02:38:59.577Z,14.70
2018-06-27T02:39:59.554Z,10.40
2018-06-27T02:40:59.544Z,15.20
2018-06-27T02:41:59.532Z,13.60
2018-06-27T02:42:59.533Z,14.00
2018-06-27T02:43:59.510Z,17.80
2018-06-27T02:44:59.498Z,15.90
2018-06-27T02:45:59.488Z,15.80
2018-06-27T02:46:59.474Z,14.80
2018-06-27T02:47:59.479Z,14.90
2018-06-27T02:48:59.456Z,16.50
2018-06-27T02:49:59.443Z,19.50
2018-06-27T02:50:59.433Z,20.60
2018-06-27T02:51:59.421Z,13.70
2018-06-27T02:52:59.446Z,15.20
2018-06-27T02:53:59.397Z,12.70
2018-06-27T02:54:59.387Z,12.90
2018-06-27T02:55:59.374Z,17.50
2018-06-27T02:56:59.378Z,16.40
2018-06-27T02:57:59.352Z,11.60
2018-06-27T02:58:59.354Z,17.50
2018-06-27T02:59:59.330Z,14.30
2018-06-27T03:00:59.318Z,16.80
2018-06-27T03:01:59.309Z,15.10
2018-06-27T03:02:59.298Z,15.00
2018-06-27T03:03:59.305Z,20.80
2018-06-27T03:04:59.275Z,15.90
2018-06-27T03:05:59.265Z,13.40
2018-06-27T03:06:59.263Z,23.20
2018-06-27T03:07:59.241Z,14.90
2018-06-27T03:08:59.244Z,13.40
2018-06-27T03:09:59.218Z,14.60
2018-06-27T03:10:59.208Z,19.50
2018-06-27T03:11:59.198Z,14.10
2018-06-27T03:12:59.187Z,18.10
2018-06-27T03:13:59.194Z,13.10
2018-06-27T03:14:59.165Z,14.90
2018-06-27T03:15:59.230Z,13.40
2018-06-27T03:16:59.143Z,16.50
2018-06-27T03:17:59.134Z,18.50
2018-06-27T03:18:59.121Z,12.30
2018-06-27T03:19:59.122Z,14.80
2018-06-27T03:20:59.097Z,17.60
2018-06-27T03:21:59.085Z,12.10
2018-06-27T03:22:59.075Z,11.90
2018-06-27T03:23:59.065Z,13.40
2018-06-27T03:24:59.065Z,14.80
2018-06-27T03:25:59.042Z,20.00
2018-06-27T03:26:59.030Z,14.20
2018-06-27T03:27:59.020Z,15.40
2018-06-27T03:28:59.009Z,15.10
2018-06-27T03:29:59.011Z,16.30
2018-06-27T03:30:58.985Z,18.80
2018-06-27T03:31:58.976Z,12.60
2018-06-27T03:32:58.967Z,14.40
2018-06-27T03:33:58.951Z,15.10
2018-06-27T03:34:58.954Z,17.70
2018-06-27T03:35:58.929Z,15.40
2018-06-27T03:36:58.923Z,11.80
2018-06-27T03:37:58.925Z,14.10
2018-06-27T03:38:58.898Z,12.70
2018-06-27T03:39:58.918Z,17.70
2018-06-27T03:40:58.927Z,12.20
2018-06-27T03:41:58.861Z,16.60
2018-06-27T03:42:58.857Z,16.90
2018-06-27T03:43:58.864Z,10.90
2018-06-27T03:44:58.855Z,14.70
2018-06-27T03:45:58.820Z,15.20
2018-06-27T03:46:58.808Z,13.80
2018-06-27T03:47:58.794Z,13.50
2018-06-27T03:48:58.795Z,11.60
2018-06-27T03:49:58.810Z,14.60
2018-06-27T03:50:58.763Z,11.30
2018-06-27T03:51:58.751Z,13.60
2018-06-27T03:52:58.739Z,14.70
2018-06-27T03:53:58.727Z,12.60
2018-06-27T03:54:58.733Z,13.10
2018-06-27T03:55:58.706Z,12.80
2018-06-27T03:56:58.697Z,15.50
2018-06-27T03:57:58.684Z,14.90
2018-06-27T03:58:58.678Z,14.40
2018-06-27T03:59:58.679Z,14.70
2018-06-27T04:00:58.653Z,12.90
2018-06-27T04:01:58.642Z,11.80
2018-06-27T04:02:58.636Z,19.10
2018-06-27T04:03:58.620Z,23.60
2018-06-27T04:04:58.622Z,12.60
2018-06-27T04:05:58.597Z,13.80
2018-06-27T04:06:58.595Z,14.50
2018-06-27T04:07:58.575Z,13.40
2018-06-27T04:08:58.566Z,17.20
2018-06-27T04:09:58.570Z,11.40
2018-06-27T04:10:58.542Z,13.90
2018-06-27T04:11:58.532Z,13.80
2018-06-27T04:12:58.607Z,13.40
2018-06-27T04:13:58.511Z,15.10
2018-06-27T04:14:58.512Z,14.40
2018-06-27T04:15:58.486Z,14.70
2018-06-27T04:16:58.483Z,15.10
2018-06-27T04:17:58.465Z,21.70
2018-06-27T04:18:58.455Z,14.20
2018-06-27T04:19:58.457Z,11.90
2018-06-27T04:20:58.434Z,15.50
2018-06-27T04:21:58.422Z,13.90
2018-06-27T04:22:58.412Z,12.60
2018-06-27T04:23:58.400Z,13.30
2018-06-27T04:24:58.405Z,16.30
2018-06-27T04:25:58.377Z,14.30
2018-06-27T04:26:58.366Z,17.10
2018-06-27T04:27:58.356Z,13.00
2018-06-27T04:28:58.347Z,15.60
2018-06-27T04:29:58.350Z,12.40
2018-06-27T04:30:58.322Z,13.80
2018-06-27T04:31:58.311Z,15.30
2018-06-27T04:32:58.301Z,13.60
2018-06-27T04:33:58.290Z,13.90
2018-06-27T04:34:58.292Z,19.40
2018-06-27T04:35:58.329Z,19.80
2018-06-27T04:36:58.257Z,14.60
2018-06-27T04:37:58.251Z,12.90
2018-06-27T04:38:58.238Z,13.30
2018-06-27T04:39:58.245Z,14.20
2018-06-27T04:40:58.260Z,12.10
2018-06-27T04:41:58.202Z,13.70
2018-06-27T04:42:58.191Z,14.90
2018-06-27T04:43:58.181Z,14.00
2018-06-27T04:44:58.189Z,14.00
2018-06-27T04:45:58.157Z,17.60
2018-06-27T04:46:58.146Z,17.50
2018-06-27T04:47:58.135Z,17.70
2018-06-27T04:48:58.126Z,15.40
2018-06-27T04:49:58.127Z,13.30
2018-06-27T04:50:58.103Z,21.70
2018-06-27T04:51:58.090Z,13.30
2018-06-27T04:52:58.099Z,13.50
2018-06-27T04:53:58.068Z,12.40
2018-06-27T04:54:58.143Z,14.40
2018-06-27T04:55:58.048Z,15.70
2018-06-27T04:56:58.037Z,18.40
2018-06-27T04:57:58.027Z,17.20
2018-06-27T04:58:58.013Z,21.80
2018-06-27T04:59:58.059Z,16.60
2018-06-27T05:00:57.992Z,13.80
2018-06-27T05:01:57.985Z,13.70
2018-06-27T05:02:57.969Z,15.40
2018-06-27T05:03:57.966Z,15.10
2018-06-27T05:04:57.966Z,14.70
2018-06-27T05:05:57.938Z,17.70
2018-06-27T05:06:57.926Z,14.40
2018-06-27T05:07:57.915Z,15.00
2018-06-27T05:08:57.905Z,17.90
2018-06-27T05:09:57.909Z,14.40
2018-06-27T05:10:57.883Z,16.60
2018-06-27T05:11:57.877Z,14.50
2018-06-27T05:12:57.865Z,14.10
2018-06-27T05:13:57.851Z,17.20
2018-06-27T05:14:57.857Z,15.50
2018-06-27T05:15:57.883Z,16.60
2018-06-27T05:16:57.816Z,15.70
2018-06-27T05:17:57.807Z,20.20
2018-06-27T05:18:57.795Z,14.90
2018-06-27T05:19:57.783Z,17.40
2018-06-27T05:20:57.789Z,18.70
2018-06-27T05:21:57.774Z,14.50
2018-06-27T05:22:57.750Z,16.60
2018-06-27T05:23:57.740Z,13.90
2018-06-27T05:24:57.729Z,13.20
2018-06-27T05:25:57.741Z,17.30
2018-06-27T05:26:57.708Z,17.00
2018-06-27T05:27:57.697Z,14.60
2018-06-27T05:28:57.685Z,15.10
2018-06-27T05:29:57.680Z,13.00
2018-06-27T05:30:57.668Z,18.70
2018-06-27T05:31:57.672Z,12.70
2018-06-27T05:32:57.643Z,15.40
2018-06-27T05:33:57.658Z,17.70
2018-06-27T05:34:57.621Z,10.40
2018-06-27T05:35:57.610Z,16.40
2018-06-27T05:36:57.600Z,14.40
2018-06-27T05:37:57.603Z,15.30
2018-06-27T05:38:57.578Z,16.00
2018-06-27T05:39:57.567Z,13.10
2018-06-27T05:40:57.558Z,16.20
2018-06-27T05:41:57.550Z,15.40
2018-06-27T05:42:57.553Z,15.50
2018-06-27T05:43:57.524Z,20.00
2018-06-27T05:44:57.519Z,15.80
2018-06-27T05:45:57.504Z,13.60
2018-06-27T05:46:57.492Z,18.20
2018-06-27T05:47:57.503Z,12.50
2018-06-27T05:48:57.470Z,16.20
2018-06-27T05:49:57.459Z,16.90
2018-06-27T05:50:57.449Z,13.30
2018-06-27T05:51:57.439Z,15.50
2018-06-27T05:52:57.443Z,17.50
2018-06-27T05:53:57.420Z,15.90
2018-06-27T05:54:57.406Z,15.10
2018-06-27T05:55:57.399Z,20.20
2018-06-27T05:56:57.393Z,13.70
2018-06-27T05:57:57.392Z,16.60
2018-06-27T05:58:57.369Z,11.90
2018-06-27T05:59:57.360Z,17.00
2018-06-27T06:00:57.356Z,15.20
2018-06-27T06:01:57.336Z,17.40
2018-06-27T06:02:57.337Z,16.10
2018-06-27T06:03:57.314Z,16.50
2018-06-27T06:04:57.301Z,14.70
2018-06-27T06:05:57.289Z,14.80
2018-06-27T06:06:57.280Z,14.50
2018-06-27T06:07:57.282Z,12.00
2018-06-27T06:08:57.256Z,13.80
2018-06-27T06:09:57.259Z,14.90
2018-06-27T06:10:57.240Z,15.20
2018-06-27T06:11:57.228Z,16.40
2018-06-27T06:12:57.235Z,18.80
2018-06-27T06:13:57.205Z,14.30
2018-06-27T06:14:57.194Z,17.90
2018-06-27T06:15:57.185Z,12.90
2018-06-27T06:16:57.175Z,11.80
2018-06-27T06:17:57.180Z,16.60
2018-06-27T06:18:57.157Z,16.10
2018-06-27T06:19:57.143Z,18.30
2018-06-27T06:20:57.137Z,13.30
2018-06-27T06:21:57.122Z,14.70
2018-06-27T06:22:57.130Z,13.60
2018-06-27T06:23:57.105Z,13.10
2018-06-27T06:24:57.092Z,16.80
2018-06-27T06:25:57.083Z,14.90
2018-06-27T06:26:57.075Z,14.80
2018-06-27T06:27:57.097Z,12.80
2018-06-27T06:28:57.063Z,13.50
2018-06-27T06:29:57.040Z,16.60
2018-06-27T06:30:57.031Z,14.90
2018-06-27T06:31:57.021Z,15.30
2018-06-27T06:32:57.011Z,16.40
2018-06-27T06:33:57.012Z,19.20
2018-06-27T06:34:56.987Z,24.50
2018-06-27T06:35:56.978Z,17.10
2018-06-27T06:36:56.971Z,17.30
2018-06-27T06:37:56.956Z,17.10
2018-06-27T06:38:56.954Z,13.30
2018-06-27T06:39:56.952Z,14.40
2018-06-27T06:40:56.925Z,17.60
2018-06-27T06:41:56.917Z,14.80
2018-06-27T06:42:57.180Z,14.30
2018-06-27T06:43:56.897Z,16.60
2018-06-27T06:44:56.898Z,14.10
2018-06-27T06:45:56.917Z,13.50
2018-06-27T06:46:56.877Z,14.70
2018-06-27T06:47:56.863Z,15.30
2018-06-27T06:48:56.843Z,18.00
2018-06-27T06:49:56.864Z,12.40
2018-06-27T06:50:56.821Z,14.50
2018-06-27T06:51:56.813Z,12.20
2018-06-27T06:52:56.802Z,13.90
2018-06-27T06:53:56.796Z,12.80
2018-06-27T06:54:56.798Z,14.10
2018-06-27T06:55:56.771Z,18.40
2018-06-27T06:56:56.763Z,13.50
2018-06-27T06:57:56.752Z,12.70
2018-06-27T06:58:56.741Z,14.50
2018-06-27T06:59:56.747Z,14.10
2018-06-27T07:00:56.722Z,12.90
2018-06-27T07:01:56.712Z,14.40
2018-06-27T07:02:56.704Z,13.00
2018-06-27T07:03:56.694Z,17.30
2018-06-27T07:04:56.742Z,16.40
2018-06-27T07:05:56.681Z,13.20
2018-06-27T07:06:56.661Z,9.90
2018-06-27T07:07:56.654Z,15.50
2018-06-27T07:08:56.641Z,14.60
2018-06-27T07:09:56.646Z,13.10
2018-06-27T07:10:56.626Z,14.20
2018-06-27T07:11:56.616Z,11.40
2018-06-27T07:12:56.601Z,13.80
2018-06-27T07:13:56.592Z,11.60
2018-06-27T07:14:56.604Z,14.00
2018-06-27T07:15:56.575Z,10.40
2018-06-27T07:16:56.635Z,13.00
2018-06-27T07:17:56.555Z,10.40
2018-06-27T07:18:56.547Z,10.60
2018-06-27T07:19:56.548Z,16.40
2018-06-27T07:20:56.523Z,15.80
2018-06-27T07:21:56.518Z,11.00
2018-06-27T07:22:56.506Z,11.70
2018-06-27T07:23:56.495Z,13.00
2018-06-27T07:24:56.511Z,12.30
2018-06-27T07:25:56.481Z,10.50
2018-06-27T07:26:56.472Z,14.40
2018-06-27T07:27:56.456Z,15.80
2018-06-27T07:28:56.451Z,17.40
2018-06-27T07:29:56.470Z,12.60
2018-06-27T07:30:56.428Z,12.40
2018-06-27T07:31:56.446Z,10.60
2018-06-27T07:32:56.408Z,10.70
2018-06-27T07:33:56.413Z,11.10
2018-06-27T07:34:56.418Z,10.90
2018-06-27T07:35:56.401Z,12.10
2018-06-27T07:36:56.370Z,9.00
2018-06-27T07:37:56.400Z,12.90
2018-06-27T07:38:56.350Z,13.20
2018-06-27T07:39:56.784Z,9.30
2018-06-27T07:40:56.340Z,9.30
2018-06-27T07:41:56.321Z,12.80
2018-06-27T07:42:56.313Z,11.80
2018-06-27T07:43:56.304Z,11.40
2018-06-27T07:44:56.308Z,10.90
2018-06-27T07:45:56.285Z,11.90
2018-06-27T07:46:56.277Z,9.40
2018-06-27T07:47:56.267Z,11.10
2018-06-27T07:48:56.270Z,9.70
2018-06-27T07:49:56.304Z,11.50
2018-06-27T07:50:56.236Z,12.50
2018-06-27T07:51:56.228Z,10.90
2018-06-27T07:52:56.236Z,9.90
2018-06-27T07:53:56.219Z,10.90
2018-06-27T07:54:56.212Z,10.40
2018-06-27T07:55:56.202Z,14.90
2018-06-27T07:56:56.182Z,10.40
2018-06-27T07:57:56.173Z,11.00
2018-06-27T07:58:56.163Z,11.00
2018-06-27T07:59:56.168Z,11.60
2018-06-27T08:00:56.145Z,14.20
2018-06-27T08:01:56.140Z,11.70
2018-06-27T08:02:56.130Z,10.50
2018-06-27T08:03:56.120Z,8.80
2018-06-27T08:04:56.122Z,9.50
2018-06-27T08:05:56.183Z,12.90
2018-06-27T08:06:56.089Z,8.30
2018-06-27T08:07:56.083Z,7.90
2018-06-27T08:08:56.072Z,11.70
2018-06-27T08:09:56.077Z,10.40
2018-06-27T08:10:56.054Z,11.00
2018-06-27T08:11:56.046Z,13.00
2018-06-27T08:12:56.044Z,12.00
2018-06-27T08:13:56.077Z,10.00
2018-06-27T08:14:56.061Z,9.40
2018-06-27T08:15:56.010Z,8.50
2018-06-27T08:16:56.000Z,8.20
2018-06-27T08:17:56.025Z,9.40
2018-06-27T08:18:55.983Z,9.90
2018-06-27T08:19:55.996Z,10.80
2018-06-27T08:20:55.967Z,7.70
2018-06-27T08:21:55.982Z,10.40
2018-06-27T08:22:55.947Z,8.20
2018-06-27T08:23:55.940Z,8.70
2018-06-27T08:24:55.928Z,7.90
2018-06-27T08:25:55.958Z,7.90
2018-06-27T08:26:55.919Z,6.90
2018-06-27T08:27:55.906Z,10.60
2018-06-27T08:28:55.897Z,10.60
2018-06-27T08:29:55.884Z,6.90
2018-06-27T08:30:55.889Z,8.60
2018-06-27T08:31:55.870Z,8.40
2018-06-27T08:32:55.863Z,11.50
2018-06-27T08:33:55.853Z,7.40
2018-06-27T08:34:55.857Z,7.40
2018-06-27T08:35:55.869Z,8.20
2018-06-27T08:36:55.827Z,6.00
2018-06-27T08:37:55.819Z,4.90
2018-06-27T08:38:55.814Z,11.40
2018-06-27T08:39:55.803Z,7.70
2018-06-27T08:40:55.795Z,7.50
2018-06-27T08:41:55.822Z,9.30
2018-06-27T08:42:55.775Z,7.50
2018-06-27T08:43:55.779Z,5.40
2018-06-27T08:44:55.757Z,6.10
2018-06-27T08:45:55.753Z,4.50
2018-06-27T08:46:55.783Z,5.90
2018-06-27T08:47:55.731Z,5.90
2018-06-27T08:48:55.721Z,5.70
2018-06-27T08:49:55.728Z,4.60
2018-06-27T08:50:55.701Z,5.40
2018-06-27T08:51:55.695Z,5.90
2018-06-27T08:52:55.699Z,6.00
2018-06-27T08:53:55.690Z,5.70
2018-06-27T08:54:55.668Z,6.10
2018-06-27T08:55:55.665Z,7.40
2018-06-27T08:56:55.653Z,9.90
2018-06-27T08:57:55.660Z,6.70
2018-06-27T08:58:55.700Z,9.00
2018-06-27T08:59:55.632Z,7.00
2018-06-27T09:00:55.619Z,7.70
2018-06-27T09:01:55.611Z,9.00
2018-06-27T09:02:55.618Z,5.80
2018-06-27T09:03:55.593Z,6.10
2018-06-27T09:04:55.588Z,7.70
2018-06-27T09:05:55.578Z,8.90
2018-06-27T09:06:55.573Z,6.80
2018-06-27T09:07:55.577Z,10.40
2018-06-27T09:08:55.555Z,10.60
2018-06-27T09:09:55.550Z,8.90
2018-06-27T09:10:55.546Z,7.50
2018-06-27T09:11:55.536Z,6.70
2018-06-27T09:12:55.541Z,6.90
2018-06-27T09:13:55.528Z,7.10
2018-06-27T09:14:55.510Z,4.50
2018-06-27T09:15:55.499Z,10.30
2018-06-27T09:16:55.492Z,3.80
2018-06-27T09:17:55.508Z,6.10
2018-06-27T09:18:55.476Z,4.60
2018-06-27T09:19:55.474Z,12.10
2018-06-27T09:20:55.471Z,4.40
2018-06-27T09:21:55.454Z,4.70
2018-06-27T09:22:55.469Z,6.10
2018-06-27T09:23:55.433Z,5.30
2018-06-27T09:24:55.424Z,6.60
2018-06-27T09:25:55.418Z,3.90
2018-06-27T09:26:55.422Z,3.80
2018-06-27T09:27:55.431Z,6.30
2018-06-27T09:28:55.394Z,3.70
2018-06-27T09:29:55.385Z,3.70
2018-06-27T09:30:55.378Z,4.70
2018-06-27T09:31:55.372Z,6.00
2018-06-27T09:32:55.385Z,4.40
2018-06-27T09:33:55.361Z,4.70
2018-06-27T09:34:55.371Z,6.10
2018-06-27T09:35:55.344Z,4.40
2018-06-27T09:36:55.331Z,4.70
2018-06-27T09:37:55.338Z,4.50
2018-06-27T09:38:55.314Z,3.70
2018-06-27T09:39:55.313Z,4.80
2018-06-27T09:40:55.312Z,3.80
2018-06-27T09:41:55.368Z,6.10
2018-06-27T09:42:55.305Z,3.10
2018-06-27T09:43:55.277Z,6.80
2018-06-27T09:44:55.268Z,2.90
2018-06-27T09:45:55.264Z,3.00
2018-06-27T09:46:55.295Z,5.50
2018-06-27T09:47:55.248Z,4.60
2018-06-27T09:48:55.257Z,4.30
2018-06-27T09:49:55.235Z,3.50
2018-06-27T09:50:55.231Z,3.90
2018-06-27T09:51:55.220Z,3.90
2018-06-27T09:52:55.295Z,3.40
2018-06-27T09:53:55.228Z,2.60
2018-06-27T09:54:55.194Z,3.90
2018-06-27T09:55:55.191Z,1.90
2018-06-27T09:56:55.224Z,4.20
2018-06-27T09:57:55.174Z,4.50
2018-06-27T09:58:55.164Z,3.20
2018-06-27T09:59:55.259Z,3.30
2018-06-27T10:00:55.152Z,4.00
2018-06-27T10:01:55.141Z,4.40
2018-06-27T10:02:55.142Z,5.80
2018-06-27T10:03:55.193Z,4.60
2018-06-27T10:04:55.145Z,2.90
2018-06-27T10:05:55.110Z,4.50
2018-06-27T10:06:55.118Z,2.80
2018-06-27T10:07:55.113Z,3.60
2018-06-27T10:08:55.088Z,3.70
2018-06-27T10:09:55.109Z,3.60
2018-06-27T10:10:55.142Z,3.50
2018-06-27T10:11:55.066Z,5.60
2018-06-27T10:12:55.097Z,5.60
2018-06-27T10:13:55.059Z,2.70
2018-06-27T10:14:55.062Z,7.60
2018-06-27T10:15:55.044Z,5.10
2018-06-27T10:16:55.056Z,3.40
2018-06-27T10:17:55.024Z,3.60
2018-06-27T10:18:55.013Z,5.30
2018-06-27T10:19:55.018Z,5.80
2018-06-27T10:20:54.995Z,3.90
2018-06-27T10:21:54.990Z,4.90
2018-06-27T10:22:54.984Z,3.30
2018-06-27T10:23:54.995Z,2.50
2018-06-27T10:24:54.993Z,8.30
2018-06-27T10:25:54.958Z,2.20
2018-06-27T10:26:54.950Z,4.30
2018-06-27T10:31:21.289Z,4.80
2018-06-27T10:32:21.284Z,2.40
2018-06-27T10:33:21.281Z,3.20
2018-06-27T10:34:21.271Z,1.80
2018-06-27T10:35:21.275Z,1.80
2018-06-27T10:36:21.267Z,3.60
2018-06-27T10:37:21.249Z,3.10
2018-06-27T10:38:21.241Z,2.50
2018-06-27T10:39:21.233Z,4.30
2018-06-27T10:40:21.229Z,4.90
2018-06-27T10:41:21.232Z,1.80
2018-06-27T10:42:21.211Z,1.90
2018-06-27T10:43:21.218Z,3.10
2018-06-27T10:44:21.199Z,1.90
2018-06-27T10:45:21.193Z,2.30
2018-06-27T10:46:21.198Z,2.30
2018-06-27T10:47:21.178Z,2.30
2018-06-27T10:48:21.169Z,4.00
2018-06-27T10:49:21.167Z,2.90
2018-06-27T10:50:21.156Z,4.10
2018-06-27T10:51:21.183Z,1.70
2018-06-27T10:52:21.140Z,2.30
2018-06-27T10:53:21.132Z,1.70
2018-06-27T10:54:21.126Z,2.80
2018-06-27T10:55:21.122Z,3.70
2018-06-27T10:56:21.115Z,1.40
2018-06-27T10:57:21.120Z,2.50
2018-06-27T10:58:21.095Z,2.40
2018-06-27T10:59:21.087Z,3.00
2018-06-27T11:00:21.081Z,3.40
2018-06-27T11:01:21.076Z,1.50
2018-06-27T11:02:21.084Z,1.70
2018-06-27T11:03:21.062Z,1.70
2018-06-27T11:04:21.050Z,1.90
2018-06-27T11:05:21.101Z,1.40
2018-06-27T11:06:21.037Z,2.80
2018-06-27T11:07:21.025Z,1.70
2018-06-27T11:08:21.034Z,1.40
2018-06-27T11:09:21.014Z,2.70
2018-06-27T11:10:21.002Z,1.60
2018-06-27T11:11:20.994Z,1.90
2018-06-27T11:12:20.986Z,1.50
2018-06-27T11:13:20.995Z,1.70
2018-06-27T11:14:20.973Z,1.80
2018-06-27T11:15:20.962Z,1.50
2018-06-27T11:16:20.957Z,2.90
2018-06-27T11:17:20.958Z,1.70
2018-06-27T11:18:20.955Z,1.20
2018-06-27T11:19:20.937Z,3.60
2018-06-27T11:20:20.940Z,2.10
2018-06-27T11:21:20.916Z,1.70
2018-06-27T11:22:20.917Z,2.40
2018-06-27T11:23:20.913Z,3.70
2018-06-27T11:24:20.895Z,3.60
2018-06-27T11:25:20.885Z,1.50
2018-06-27T11:26:20.879Z,2.50
2018-06-27T11:27:20.876Z,2.10
2018-06-27T11:28:20.863Z,3.40
2018-06-27T11:29:20.870Z,2.40
2018-06-27T11:30:20.856Z,3.20
2018-06-27T11:31:20.858Z,2.20
2018-06-27T11:32:20.833Z,1.70
2018-06-27T11:33:20.837Z,1.40
2018-06-27T11:34:20.820Z,1.70
2018-06-27T11:35:20.808Z,2.70
2018-06-27T11:36:20.799Z,1.40
2018-06-27T11:37:20.792Z,2.10
2018-06-27T11:38:20.804Z,1.90
2018-06-27T11:39:20.779Z,1.70
2018-06-27T11:40:20.766Z,2.30
2018-06-27T11:41:20.762Z,1.80
2018-06-27T11:42:20.767Z,1.30
2018-06-27T11:43:20.773Z,2.00
2018-06-27T11:44:20.736Z,2.30
2018-06-27T11:45:20.727Z,1.40
2018-06-27T11:46:20.716Z,5.60
2018-06-27T11:47:20.707Z,1.20
2018-06-27T11:48:20.706Z,6.70
2018-06-27T11:49:20.701Z,3.00
2018-06-27T11:50:20.679Z,2.30
2018-06-27T11:51:20.669Z,1.30
2018-06-27T11:52:20.660Z,1.60
2018-06-27T11:53:20.714Z,2.90
2018-06-27T11:54:20.664Z,2.10
2018-06-27T11:55:20.642Z,1.90
2018-06-27T11:56:20.629Z,1.40
2018-06-27T11:57:20.642Z,1.30
2018-06-27T11:58:20.612Z,1.80
2018-06-27T11:59:20.598Z,2.60
2018-06-27T12:00:20.596Z,3.00
2018-06-27T12:01:20.576Z,1.50
2018-06-27T12:02:20.570Z,1.20
2018-06-27T12:03:20.555Z,2.60
2018-06-27T12:04:20.571Z,2.70
2018-06-27T12:05:20.551Z,5.10
2018-06-27T12:06:20.526Z,4.30
2018-06-27T12:07:20.516Z,1.90
2018-06-27T12:08:20.512Z,1.70
2018-06-27T12:09:20.502Z,2.60
2018-06-27T12:10:20.502Z,5.70
2018-06-27T12:11:20.476Z,1.80
2018-06-27T12:12:20.466Z,1.50
2018-06-27T12:13:20.457Z,0.80
2018-06-27T12:14:20.453Z,1.20
2018-06-27T12:15:20.449Z,1.90
2018-06-27T12:16:20.428Z,1.30
2018-06-27T12:17:20.416Z,1.10
2018-06-27T12:18:20.406Z,0.80
2018-06-27T12:19:20.398Z,3.00
2018-06-27T12:20:20.400Z,1.00
2018-06-27T12:21:20.375Z,0.60
2018-06-27T12:22:20.368Z,4.60
2018-06-27T12:23:20.369Z,3.70
2018-06-27T12:24:20.348Z,1.80
2018-06-27T12:25:20.359Z,3.00
2018-06-27T12:26:20.345Z,1.90
2018-06-27T12:27:20.318Z,2.10
2018-06-27T12:28:20.308Z,3.30
2018-06-27T12:29:20.298Z,2.00
2018-06-27T12:30:20.312Z,1.80
2018-06-27T12:31:20.277Z,2.00
2018-06-27T12:32:20.275Z,1.60
2018-06-27T12:33:20.257Z,1.30
2018-06-27T12:34:20.248Z,2.00
2018-06-27T12:35:20.274Z,1.20
2018-06-27T12:36:20.226Z,2.80
2018-06-27T12:37:20.245Z,1.40
2018-06-27T12:38:20.212Z,1.60
2018-06-27T12:39:20.193Z,1.80
2018-06-27T12:40:20.184Z,2.60
2018-06-27T12:41:20.184Z,2.60
2018-06-27T12:42:20.163Z,1.90
2018-06-27T12:43:20.158Z,2.80
2018-06-27T12:44:20.176Z,2.00
2018-06-27T12:45:20.131Z,2.80
2018-06-27T12:46:20.138Z,2.90
2018-06-27T12:47:20.112Z,1.40
2018-06-27T12:48:20.103Z,3.00
2018-06-27T12:49:20.092Z,1.90
2018-06-27T12:50:20.151Z,1.50
2018-06-27T12:51:20.070Z,1.60
2018-06-27T12:52:20.076Z,1.40
2018-06-27T12:53:20.053Z,0.70
2018-06-27T12:54:20.040Z,2.80
2018-06-27T12:55:20.031Z,1.40
2018-06-27T12:56:20.020Z,1.10
2018-06-27T12:57:20.025Z,0.90
2018-06-27T12:58:20.003Z,0.80
2018-06-27T12:59:19.988Z,1.20
2018-06-27T13:00:20.033Z,2.90
2018-06-27T13:01:19.967Z,0.90
2018-06-27T13:02:19.968Z,1.40
2018-06-27T13:03:19.968Z,1.30
2018-06-27T13:04:19.937Z,3.70
2018-06-27T13:05:19.926Z,4.40
2018-06-27T13:06:19.916Z,1.10
2018-06-27T13:07:19.918Z,2.00
2018-06-27T13:08:19.902Z,2.50